Weather at Vienna International Airport

Public forecast

Using degrees Celsius for public forecast. Weather courtesy of forecast.io.

Current aviation weather report (METAR) for Vienna International Airport

Retrieved 2022/06/30 10:20 UTC (35 minutes ago):

LOWW 301020Z 34008KT 300V020 9999 FEW040 29/18 Q1012 NOSIG

Aviation forecast (TAF) for Vienna International Airport

Retrieved 2022/06/30 09:27 UTC (1 hour ago):

TAF TAF LOWW 300815Z 3009/0115 35008KT 9999 FEW030 TX32/0111Z TN20/0103Z BECMG 3013/3015 VRB03KT BECMG 0107/0110 29015KT TEMPO 0112/0115 30023G35KT FEW050CB